Ephrata, Washington
Current Conditions -  °F | °C
As of 12:13 PM on Thursday 29 Jan 2015 (Local Time) from KEPH Reporting Station
Overcast Overcast  
Wind Chill: 40°   Ceiling: 1500
Heat Index: 40°   Visibility: 10mi
Dew Point: 33°   Wind: 0mph
Humidity: 77%   Direction: NA
Pressure: 30.43"   Gusts: NA
Location:  47.32°N, 119.55°W
Report Text: KEPH 292013Z AUTO 00000KT 10SM OVC015 04/01 A3043 RMK AO2 T00440006
Loading
Personal Weather Stations






























Interactive Weather Map New forecast layout! Learn more

10-Day Weather Forecast

Advertisements
Track Severe Weather on mobile